sensor_id;sensor_type;location;lat;lon;timestamp;temperature;humidity
47532;DHT22;33273;52.254;7.988;2022-11-21T00:01:48;0.20;92.90
47532;DHT22;33273;52.254;7.988;2022-11-21T00:04:14;0.20;92.60
47532;DHT22;33273;52.254;7.988;2022-11-21T00:06:41;0.10;92.40
47532;DHT22;33273;52.254;7.988;2022-11-21T00:09:07;0.20;92.10
47532;DHT22;33273;52.254;7.988;2022-11-21T00:11:32;0.20;92.10
47532;DHT22;33273;52.254;7.988;2022-11-21T00:13:58;0.20;92.20
47532;DHT22;33273;52.254;7.988;2022-11-21T00:16:24;0.20;93.00
47532;DHT22;33273;52.254;7.988;2022-11-21T00:18:50;0.20;92.20
47532;DHT22;33273;52.254;7.988;2022-11-21T00:21:17;0.20;92.50
47532;DHT22;33273;52.254;7.988;2022-11-21T00:23:46;0.20;91.70
47532;DHT22;33273;52.254;7.988;2022-11-21T00:26:13;0.20;92.50
47532;DHT22;33273;52.254;7.988;2022-11-21T00:28:40;0.10;91.70
47532;DHT22;33273;52.254;7.988;2022-11-21T00:31:06;0.10;92.00
47532;DHT22;33273;52.254;7.988;2022-11-21T00:33:36;0.10;92.00
47532;DHT22;33273;52.254;7.988;2022-11-21T00:36:07;0.10;91.80
47532;DHT22;33273;52.254;7.988;2022-11-21T00:38:33;0.00;91.90
47532;DHT22;33273;52.254;7.988;2022-11-21T00:41:00;0.00;92.00
47532;DHT22;33273;52.254;7.988;2022-11-21T00:43:25;0.00;92.00
47532;DHT22;33273;52.254;7.988;2022-11-21T00:45:51;0.00;92.00
47532;DHT22;33273;52.254;7.988;2022-11-21T00:48:19;0.00;92.10
47532;DHT22;33273;52.254;7.988;2022-11-21T00:50:48;0.00;92.10
47532;DHT22;33273;52.254;7.988;2022-11-21T00:53:14;0.00;91.90
47532;DHT22;33273;52.254;7.988;2022-11-21T00:55:41;0.00;92.00
47532;DHT22;33273;52.254;7.988;2022-11-21T00:58:09;0.00;92.00
47532;DHT22;33273;52.254;7.988;2022-11-21T01:00:35;0.00;92.00
47532;DHT22;33273;52.254;7.988;2022-11-21T01:03:01;0.00;92.00
47532;DHT22;33273;52.254;7.988;2022-11-21T01:05:27;0.00;92.00
47532;DHT22;33273;52.254;7.988;2022-11-21T01:07:52;0.00;92.10
47532;DHT22;33273;52.254;7.988;2022-11-21T01:10:18;0.10;92.30
47532;DHT22;33273;52.254;7.988;2022-11-21T01:12:44;0.10;92.50
47532;DHT22;33273;52.254;7.988;2022-11-21T01:15:10;0.10;92.60
47532;DHT22;33273;52.254;7.988;2022-11-21T01:17:36;0.10;92.70
47532;DHT22;33273;52.254;7.988;2022-11-21T01:20:02;0.20;92.80
47532;DHT22;33273;52.254;7.988;2022-11-21T01:22:29;0.10;92.90
47532;DHT22;33273;52.254;7.988;2022-11-21T01:24:55;0.10;92.80
47532;DHT22;33273;52.254;7.988;2022-11-21T01:27:21;0.10;92.60
47532;DHT22;33273;52.254;7.988;2022-11-21T01:29:47;0.10;92.50
47532;DHT22;33273;52.254;7.988;2022-11-21T01:32:12;0.10;92.80
47532;DHT22;33273;52.254;7.988;2022-11-21T01:34:38;0.00;92.90
47532;DHT22;33273;52.254;7.988;2022-11-21T01:37:04;0.10;93.20
47532;DHT22;33273;52.254;7.988;2022-11-21T01:39:30;0.10;93.20
47532;DHT22;33273;52.254;7.988;2022-11-21T01:41:56;0.10;93.30
47532;DHT22;33273;52.254;7.988;2022-11-21T01:44:24;0.10;93.50
47532;DHT22;33273;52.254;7.988;2022-11-21T01:46:51;0.20;93.50
47532;DHT22;33273;52.254;7.988;2022-11-21T01:49:26;0.10;93.70
47532;DHT22;33273;52.254;7.988;2022-11-21T01:51:54;0.20;93.70
47532;DHT22;33273;52.254;7.988;2022-11-21T01:57:16;0.20;93.80
47532;DHT22;33273;52.254;7.988;2022-11-21T01:59:45;0.20;93.90
47532;DHT22;33273;52.254;7.988;2022-11-21T02:02:15;0.20;94.00
47532;DHT22;33273;52.254;7.988;2022-11-21T02:04:42;0.20;94.10
47532;DHT22;33273;52.254;7.988;2022-11-21T02:07:09;0.20;94.10
47532;DHT22;33273;52.254;7.988;2022-11-21T02:09:39;0.20;94.10
47532;DHT22;33273;52.254;7.988;2022-11-21T02:12:21;0.20;94.20
47532;DHT22;33273;52.254;7.988;2022-11-21T02:14:48;0.30;94.30
47532;DHT22;33273;52.254;7.988;2022-11-21T02:17:17;0.20;94.10
47532;DHT22;33273;52.254;7.988;2022-11-21T02:25:07;0.20;94.30
47532;DHT22;33273;52.254;7.988;2022-11-21T02:27:35;0.20;94.40
47532;DHT22;33273;52.254;7.988;2022-11-21T02:30:04;0.20;94.50
47532;DHT22;33273;52.254;7.988;2022-11-21T02:32:37;0.20;94.60
47532;DHT22;33273;52.254;7.988;2022-11-21T02:35:04;0.20;94.70
47532;DHT22;33273;52.254;7.988;2022-11-21T02:37:31;0.20;94.80
47532;DHT22;33273;52.254;7.988;2022-11-21T02:40:00;0.20;94.80
47532;DHT22;33273;52.254;7.988;2022-11-21T02:42:45;0.20;94.90
47532;DHT22;33273;52.254;7.988;2022-11-21T02:45:30;0.20;94.90
47532;DHT22;33273;52.254;7.988;2022-11-21T02:47:57;0.20;95.00
47532;DHT22;33273;52.254;7.988;2022-11-21T02:50:32;0.20;94.90
47532;DHT22;33273;52.254;7.988;2022-11-21T02:52:58;0.20;95.00
47532;DHT22;33273;52.254;7.988;2022-11-21T02:55:25;0.20;95.10
47532;DHT22;33273;52.254;7.988;2022-11-21T02:57:51;0.20;95.10
47532;DHT22;33273;52.254;7.988;2022-11-21T03:00:18;0.20;95.10
47532;DHT22;33273;52.254;7.988;2022-11-21T03:02:44;0.20;95.10
47532;DHT22;33273;52.254;7.988;2022-11-21T03:05:13;0.20;95.20
47532;DHT22;33273;52.254;7.988;2022-11-21T03:07:40;0.20;95.20
47532;DHT22;33273;52.254;7.988;2022-11-21T03:10:07;0.20;95.30
47532;DHT22;33273;52.254;7.988;2022-11-21T03:12:38;0.20;95.20
47532;DHT22;33273;52.254;7.988;2022-11-21T03:15:05;0.20;95.20
47532;DHT22;33273;52.254;7.988;2022-11-21T03:17:32;0.20;95.30
47532;DHT22;33273;52.254;7.988;2022-11-21T03:19:58;0.20;95.30
47532;DHT22;33273;52.254;7.988;2022-11-21T03:22:24;0.20;95.30
47532;DHT22;33273;52.254;7.988;2022-11-21T03:24:49;0.20;95.30
47532;DHT22;33273;52.254;7.988;2022-11-21T03:27:16;0.20;95.30
47532;DHT22;33273;52.254;7.988;2022-11-21T03:29:42;0.20;95.30
47532;DHT22;33273;52.254;7.988;2022-11-21T03:32:07;0.20;95.30
47532;DHT22;33273;52.254;7.988;2022-11-21T03:34:35;0.20;95.20
47532;DHT22;33273;52.254;7.988;2022-11-21T03:37:01;0.20;95.20
47532;DHT22;33273;52.254;7.988;2022-11-21T03:39:28;0.20;95.20
47532;DHT22;33273;52.254;7.988;2022-11-21T03:41:55;0.20;95.20
47532;DHT22;33273;52.254;7.988;2022-11-21T03:44:20;0.20;95.30
47532;DHT22;33273;52.254;7.988;2022-11-21T03:46:46;0.20;95.30
47532;DHT22;33273;52.254;7.988;2022-11-21T03:49:15;0.20;95.50
47532;DHT22;33273;52.254;7.988;2022-11-21T03:51:42;0.20;95.60
47532;DHT22;33273;52.254;7.988;2022-11-21T03:54:08;0.20;95.50
47532;DHT22;33273;52.254;7.988;2022-11-21T03:56:35;0.20;95.50
47532;DHT22;33273;52.254;7.988;2022-11-21T03:59:01;0.20;95.50
47532;DHT22;33273;52.254;7.988;2022-11-21T04:01:27;0.20;95.60
47532;DHT22;33273;52.254;7.988;2022-11-21T04:03:53;0.20;95.60
47532;DHT22;33273;52.254;7.988;2022-11-21T04:06:20;0.20;95.60
47532;DHT22;33273;52.254;7.988;2022-11-21T04:08:47;0.20;95.70
47532;DHT22;33273;52.254;7.988;2022-11-21T04:11:13;0.20;95.60
47532;DHT22;33273;52.254;7.988;2022-11-21T04:13:39;0.10;95.70
47532;DHT22;33273;52.254;7.988;2022-11-21T04:16:05;0.20;95.80
47532;DHT22;33273;52.254;7.988;2022-11-21T04:18:32;0.20;95.80
47532;DHT22;33273;52.254;7.988;2022-11-21T04:20:59;0.10;95.80
47532;DHT22;33273;52.254;7.988;2022-11-21T04:23:26;0.20;95.90
47532;DHT22;33273;52.254;7.988;2022-11-21T04:25:52;0.10;96.00
47532;DHT22;33273;52.254;7.988;2022-11-21T04:28:18;0.10;96.00
47532;DHT22;33273;52.254;7.988;2022-11-21T04:30:44;0.10;96.10
47532;DHT22;33273;52.254;7.988;2022-11-21T04:33:14;0.10;96.20
47532;DHT22;33273;52.254;7.988;2022-11-21T04:35:41;0.10;96.20
47532;DHT22;33273;52.254;7.988;2022-11-21T04:38:07;0.10;96.30
47532;DHT22;33273;52.254;7.988;2022-11-21T04:40:34;0.10;96.40
47532;DHT22;33273;52.254;7.988;2022-11-21T04:43:03;0.10;96.40
47532;DHT22;33273;52.254;7.988;2022-11-21T04:45:30;0.10;96.40
47532;DHT22;33273;52.254;7.988;2022-11-21T04:47:56;0.10;97.00
47532;DHT22;33273;52.254;7.988;2022-11-21T04:50:23;0.10;96.40
47532;DHT22;33273;52.254;7.988;2022-11-21T04:52:54;0.10;96.40
47532;DHT22;33273;52.254;7.988;2022-11-21T04:55:21;0.00;96.40
47532;DHT22;33273;52.254;7.988;2022-11-21T04:57:48;0.00;96.40
47532;DHT22;33273;52.254;7.988;2022-11-21T05:00:15;0.00;96.50
47532;DHT22;33273;52.254;7.988;2022-11-21T05:02:42;0.00;96.50
47532;DHT22;33273;52.254;7.988;2022-11-21T05:05:08;0.00;96.50
47532;DHT22;33273;52.254;7.988;2022-11-21T05:07:34;0.00;96.50
47532;DHT22;33273;52.254;7.988;2022-11-21T05:10:00;0.00;96.50
47532;DHT22;33273;52.254;7.988;2022-11-21T05:12:26;0.00;96.50
47532;DHT22;33273;52.254;7.988;2022-11-21T05:15:10;0.00;96.60
47532;DHT22;33273;52.254;7.988;2022-11-21T05:17:36;0.00;96.60
47532;DHT22;33273;52.254;7.988;2022-11-21T05:20:02;-0.10;96.60
47532;DHT22;33273;52.254;7.988;2022-11-21T05:22:28;-0.10;96.50
47532;DHT22;33273;52.254;7.988;2022-11-21T05:24:55;-0.20;96.50
47532;DHT22;33273;52.254;7.988;2022-11-21T05:27:24;-0.20;96.50
47532;DHT22;33273;52.254;7.988;2022-11-21T05:29:49;-0.20;96.40
47532;DHT22;33273;52.254;7.988;2022-11-21T05:32:16;-0.20;96.40
47532;DHT22;33273;52.254;7.988;2022-11-21T05:34:43;-0.30;96.30
47532;DHT22;33273;52.254;7.988;2022-11-21T05:37:09;-0.30;96.30
47532;DHT22;33273;52.254;7.988;2022-11-21T05:39:35;-0.40;96.00
47532;DHT22;33273;52.254;7.988;2022-11-21T05:42:01;-0.40;95.80
47532;DHT22;33273;52.254;7.988;2022-11-21T05:44:27;-0.40;95.80
47532;DHT22;33273;52.254;7.988;2022-11-21T05:46:54;-0.50;95.80
47532;DHT22;33273;52.254;7.988;2022-11-21T05:49:20;-0.50;96.10
47532;DHT22;33273;52.254;7.988;2022-11-21T05:51:45;-0.50;96.40
47532;DHT22;33273;52.254;7.988;2022-11-21T05:54:13;-0.50;96.40
47532;DHT22;33273;52.254;7.988;2022-11-21T05:56:42;-0.60;96.10
47532;DHT22;33273;52.254;7.988;2022-11-21T05:59:09;-0.60;96.10
47532;DHT22;33273;52.254;7.988;2022-11-21T06:01:36;-0.70;95.90
47532;DHT22;33273;52.254;7.988;2022-11-21T06:04:21;-0.70;95.90
47532;DHT22;33273;52.254;7.988;2022-11-21T06:06:47;-0.70;95.80
47532;DHT22;33273;52.254;7.988;2022-11-21T06:09:14;-0.80;95.60
47532;DHT22;33273;52.254;7.988;2022-11-21T06:11:39;-0.80;95.60
47532;DHT22;33273;52.254;7.988;2022-11-21T06:14:05;-0.90;95.70
47532;DHT22;33273;52.254;7.988;2022-11-21T06:16:31;-0.90;95.70
47532;DHT22;33273;52.254;7.988;2022-11-21T06:18:57;-0.90;95.70
47532;DHT22;33273;52.254;7.988;2022-11-21T06:21:24;-0.90;95.60
47532;DHT22;33273;52.254;7.988;2022-11-21T06:23:52;-1.00;95.40
47532;DHT22;33273;52.254;7.988;2022-11-21T06:26:21;-1.00;95.40
47532;DHT22;33273;52.254;7.988;2022-11-21T06:28:47;-1.00;95.30
47532;DHT22;33273;52.254;7.988;2022-11-21T06:31:15;-1.10;95.20
47532;DHT22;33273;52.254;7.988;2022-11-21T06:33:43;-1.20;95.00
47532;DHT22;33273;52.254;7.988;2022-11-21T06:36:14;-1.20;95.00
47532;DHT22;33273;52.254;7.988;2022-11-21T06:38:40;-1.20;95.00
47532;DHT22;33273;52.254;7.988;2022-11-21T06:43:37;-1.30;95.00
47532;DHT22;33273;52.254;7.988;2022-11-21T06:46:03;-1.30;94.90
47532;DHT22;33273;52.254;7.988;2022-11-21T06:48:35;-1.40;95.00
47532;DHT22;33273;52.254;7.988;2022-11-21T06:51:16;-1.40;95.00
47532;DHT22;33273;52.254;7.988;2022-11-21T06:53:43;-1.40;95.00
47532;DHT22;33273;52.254;7.988;2022-11-21T06:56:11;-1.50;94.90
47532;DHT22;33273;52.254;7.988;2022-11-21T06:58:44;-1.50;95.00
47532;DHT22;33273;52.254;7.988;2022-11-21T07:01:10;-1.50;95.00
47532;DHT22;33273;52.254;7.988;2022-11-21T07:03:36;-1.60;95.00
47532;DHT22;33273;52.254;7.988;2022-11-21T07:06:02;-1.60;95.10
47532;DHT22;33273;52.254;7.988;2022-11-21T07:08:29;-1.60;95.10
47532;DHT22;33273;52.254;7.988;2022-11-21T07:11:00;-1.60;95.20
47532;DHT22;33273;52.254;7.988;2022-11-21T07:13:26;-1.70;95.20
47532;DHT22;33273;52.254;7.988;2022-11-21T07:15:54;-1.70;95.30
47532;DHT22;33273;52.254;7.988;2022-11-21T07:18:21;-1.70;95.40
47532;DHT22;33273;52.254;7.988;2022-11-21T07:20:47;-1.70;95.40
47532;DHT22;33273;52.254;7.988;2022-11-21T07:23:14;-1.70;95.60
47532;DHT22;33273;52.254;7.988;2022-11-21T07:25:40;-1.80;95.60
47532;DHT22;33273;52.254;7.988;2022-11-21T07:28:06;-1.70;95.80
47532;DHT22;33273;52.254;7.988;2022-11-21T07:30:34;-1.80;95.70
47532;DHT22;33273;52.254;7.988;2022-11-21T07:33:02;-1.80;96.00
47532;DHT22;33273;52.254;7.988;2022-11-21T07:35:31;-1.80;95.90
47532;DHT22;33273;52.254;7.988;2022-11-21T07:37:57;-1.80;96.10
47532;DHT22;33273;52.254;7.988;2022-11-21T07:40:23;-1.80;96.20
47532;DHT22;33273;52.254;7.988;2022-11-21T07:42:49;-1.80;96.30
47532;DHT22;33273;52.254;7.988;2022-11-21T07:45:16;-1.70;96.70
47532;DHT22;33273;52.254;7.988;2022-11-21T07:47:42;-1.70;97.00
47532;DHT22;33273;52.254;7.988;2022-11-21T07:50:09;-1.70;97.30
47532;DHT22;33273;52.254;7.988;2022-11-21T07:52:35;-1.70;97.50
47532;DHT22;33273;52.254;7.988;2022-11-21T07:55:02;-1.70;97.70
47532;DHT22;33273;52.254;7.988;2022-11-21T07:57:29;-1.70;97.90
47532;DHT22;33273;52.254;7.988;2022-11-21T07:59:55;-1.70;98.10
47532;DHT22;33273;52.254;7.988;2022-11-21T08:02:24;-1.60;98.30
47532;DHT22;33273;52.254;7.988;2022-11-21T08:04:50;-1.60;98.40
47532;DHT22;33273;52.254;7.988;2022-11-21T08:07:17;-1.50;98.70
47532;DHT22;33273;52.254;7.988;2022-11-21T08:09:45;-1.50;98.90
47532;DHT22;33273;52.254;7.988;2022-11-21T08:12:11;-1.50;99.20
47532;DHT22;33273;52.254;7.988;2022-11-21T08:14:37;-1.40;99.50
47532;DHT22;33273;52.254;7.988;2022-11-21T08:17:04;-1.40;99.60
47532;DHT22;33273;52.254;7.988;2022-11-21T08:19:30;-1.30;99.80
47532;DHT22;33273;52.254;7.988;2022-11-21T08:21:56;-1.30;99.90
47532;DHT22;33273;52.254;7.988;2022-11-21T08:24:22;-1.20;99.90
47532;DHT22;33273;52.254;7.988;2022-11-21T08:26:48;-1.20;99.90
47532;DHT22;33273;52.254;7.988;2022-11-21T08:29:15;-1.10;99.90
47532;DHT22;33273;52.254;7.988;2022-11-21T08:31:41;-1.00;99.90
47532;DHT22;33273;52.254;7.988;2022-11-21T08:34:07;-1.00;99.90
47532;DHT22;33273;52.254;7.988;2022-11-21T08:36:33;-0.90;99.90
47532;DHT22;33273;52.254;7.988;2022-11-21T08:38:59;-0.80;99.90
47532;DHT22;33273;52.254;7.988;2022-11-21T08:41:26;-0.80;99.90
47532;DHT22;33273;52.254;7.988;2022-11-21T08:44:11;-0.70;99.90
47532;DHT22;33273;52.254;7.988;2022-11-21T08:46:37;-0.50;99.90
47532;DHT22;33273;52.254;7.988;2022-11-21T08:49:04;-0.50;99.90
47532;DHT22;33273;52.254;7.988;2022-11-21T08:51:30;-0.50;99.90
47532;DHT22;33273;52.254;7.988;2022-11-21T08:53:56;-0.40;99.90
47532;DHT22;33273;52.254;7.988;2022-11-21T08:56:22;-0.30;99.90
47532;DHT22;33273;52.254;7.988;2022-11-21T08:58:48;-0.30;99.90
47532;DHT22;33273;52.254;7.988;2022-11-21T09:01:14;-0.20;99.90
47532;DHT22;33273;52.254;7.988;2022-11-21T09:03:40;-0.20;99.90
47532;DHT22;33273;52.254;7.988;2022-11-21T09:06:06;-0.10;99.90
47532;DHT22;33273;52.254;7.988;2022-11-21T09:08:32;0.00;99.90
47532;DHT22;33273;52.254;7.988;2022-11-21T09:11:03;0.00;99.90
47532;DHT22;33273;52.254;7.988;2022-11-21T09:13:29;0.10;99.90
47532;DHT22;33273;52.254;7.988;2022-11-21T09:15:57;0.10;99.90
47532;DHT22;33273;52.254;7.988;2022-11-21T09:18:42;0.20;99.90
47532;DHT22;33273;52.254;7.988;2022-11-21T09:21:12;0.20;99.90
47532;DHT22;33273;52.254;7.988;2022-11-21T09:23:38;0.30;99.90
47532;DHT22;33273;52.254;7.988;2022-11-21T09:26:04;0.40;99.90
47532;DHT22;33273;52.254;7.988;2022-11-21T09:28:30;0.40;99.90
47532;DHT22;33273;52.254;7.988;2022-11-21T09:30:56;0.50;99.90
47532;DHT22;33273;52.254;7.988;2022-11-21T09:33:22;0.50;99.90
47532;DHT22;33273;52.254;7.988;2022-11-21T09:35:47;0.60;99.90
47532;DHT22;33273;52.254;7.988;2022-11-21T09:38:13;0.70;99.90
47532;DHT22;33273;52.254;7.988;2022-11-21T09:40:44;0.80;99.90
47532;DHT22;33273;52.254;7.988;2022-11-21T09:43:43;0.80;99.90
47532;DHT22;33273;52.254;7.988;2022-11-21T09:46:11;0.80;99.30
47532;DHT22;33273;52.254;7.988;2022-11-21T09:48:55;0.90;99.10
47532;DHT22;33273;52.254;7.988;2022-11-21T09:51:23;0.90;98.50
47532;DHT22;33273;52.254;7.988;2022-11-21T09:54:04;1.00;98.10
47532;DHT22;33273;52.254;7.988;2022-11-21T09:56:35;1.00;97.60
47532;DHT22;33273;52.254;7.988;2022-11-21T09:59:24;1.00;97.30
47532;DHT22;33273;52.254;7.988;2022-11-21T10:01:52;1.10;97.20
47532;DHT22;33273;52.254;7.988;2022-11-21T10:04:18;1.10;97.10
47532;DHT22;33273;52.254;7.988;2022-11-21T10:07:07;1.20;96.90
47532;DHT22;33273;52.254;7.988;2022-11-21T10:26:53;1.50;95.60
47532;DHT22;33273;52.254;7.988;2022-11-21T10:31:50;1.60;95.60
47532;DHT22;33273;52.254;7.988;2022-11-21T10:34:25;1.70;95.00
47532;DHT22;33273;52.254;7.988;2022-11-21T10:37:00;1.80;93.40
47532;DHT22;33273;52.254;7.988;2022-11-21T10:39:41;1.80;92.00
47532;DHT22;33273;52.254;7.988;2022-11-21T10:44:54;1.90;91.00
47532;DHT22;33273;52.254;7.988;2022-11-21T10:47:39;2.00;90.60
47532;DHT22;33273;52.254;7.988;2022-11-21T10:52:38;2.20;90.10
47532;DHT22;33273;52.254;7.988;2022-11-21T10:55:10;2.20;89.90
47532;DHT22;33273;52.254;7.988;2022-11-21T10:57:43;2.40;89.60
47532;DHT22;33273;52.254;7.988;2022-11-21T11:02:57;2.50;88.80
47532;DHT22;33273;52.254;7.988;2022-11-21T11:05:27;2.60;87.80
47532;DHT22;33273;52.254;7.988;2022-11-21T11:08:10;2.70;86.80
47532;DHT22;33273;52.254;7.988;2022-11-21T11:10:45;2.80;86.40
47532;DHT22;33273;52.254;7.988;2022-11-21T11:13:24;2.80;85.50
47532;DHT22;33273;52.254;7.988;2022-11-21T11:18:38;2.90;86.40
47532;DHT22;33273;52.254;7.988;2022-11-21T11:21:19;3.00;85.40
47532;DHT22;33273;52.254;7.988;2022-11-21T11:23:48;3.10;83.60
47532;DHT22;33273;52.254;7.988;2022-11-21T11:26:29;3.10;81.50
47532;DHT22;33273;52.254;7.988;2022-11-21T11:29:15;3.20;80.10
47532;DHT22;33273;52.254;7.988;2022-11-21T11:32:16;3.30;78.50
47532;DHT22;33273;52.254;7.988;2022-11-21T11:35:38;3.40;78.10
47532;DHT22;33273;52.254;7.988;2022-11-21T11:37:40;3.40;76.90
47532;DHT22;33273;52.254;7.988;2022-11-21T11:40:37;3.40;75.50
47532;DHT22;33273;52.254;7.988;2022-11-21T11:43:56;3.50;75.10
47532;DHT22;33273;52.254;7.988;2022-11-21T11:50:18;3.60;75.00
47532;DHT22;33273;52.254;7.988;2022-11-21T11:53:10;3.60;75.50
47532;DHT22;33273;52.254;7.988;2022-11-21T11:55:56;3.60;75.00
47532;DHT22;33273;52.254;7.988;2022-11-21T11:58:32;3.70;74.30
47532;DHT22;33273;52.254;7.988;2022-11-21T12:01:14;3.70;74.20
47532;DHT22;33273;52.254;7.988;2022-11-21T12:04:01;3.70;74.00
47532;DHT22;33273;52.254;7.988;2022-11-21T12:06:33;3.70;72.80
47532;DHT22;33273;52.254;7.988;2022-11-21T12:09:28;3.60;73.20
47532;DHT22;33273;52.254;7.988;2022-11-21T12:12:13;3.60;73.10
47532;DHT22;33273;52.254;7.988;2022-11-21T12:20:39;3.40;73.40
47532;DHT22;33273;52.254;7.988;2022-11-21T12:23:09;3.30;73.90
47532;DHT22;33273;52.254;7.988;2022-11-21T12:31:26;3.20;75.50
47532;DHT22;33273;52.254;7.988;2022-11-21T12:39:51;3.10;77.80
47532;DHT22;33273;52.254;7.988;2022-11-21T12:45:30;3.10;77.90
47532;DHT22;33273;52.254;7.988;2022-11-21T12:48:20;3.10;78.80
47532;DHT22;33273;52.254;7.988;2022-11-21T12:52:09;3.10;78.70
47532;DHT22;33273;52.254;7.988;2022-11-21T12:57:11;3.00;79.30
47532;DHT22;33273;52.254;7.988;2022-11-21T13:05:17;3.00;81.10
47532;DHT22;33273;52.254;7.988;2022-11-21T13:07:44;3.00;81.80
47532;DHT22;33273;52.254;7.988;2022-11-21T13:10:15;2.90;81.40
47532;DHT22;33273;52.254;7.988;2022-11-21T13:12:47;2.80;82.20
47532;DHT22;33273;52.254;7.988;2022-11-21T13:15:39;2.80;82.80
47532;DHT22;33273;52.254;7.988;2022-11-21T13:18:24;2.80;83.30
47532;DHT22;33273;52.254;7.988;2022-11-21T13:20:54;2.70;83.40
47532;DHT22;33273;52.254;7.988;2022-11-21T13:23:36;2.60;84.40
47532;DHT22;33273;52.254;7.988;2022-11-21T13:28:49;2.30;86.70
47532;DHT22;33273;52.254;7.988;2022-11-21T13:31:29;2.20;87.70
47532;DHT22;33273;52.254;7.988;2022-11-21T13:33:58;2.30;88.80
47532;DHT22;33273;52.254;7.988;2022-11-21T13:36:34;2.30;90.50
47532;DHT22;33273;52.254;7.988;2022-11-21T13:47:04;2.40;90.30
47532;DHT22;33273;52.254;7.988;2022-11-21T14:06:38;2.30;90.20
47532;DHT22;33273;52.254;7.988;2022-11-21T14:09:35;2.30;90.80
47532;DHT22;33273;52.254;7.988;2022-11-21T14:12:33;2.30;91.10
47532;DHT22;33273;52.254;7.988;2022-11-21T14:17:52;2.20;92.20
47532;DHT22;33273;52.254;7.988;2022-11-21T14:21:01;2.20;93.00
47532;DHT22;33273;52.254;7.988;2022-11-21T14:23:24;2.20;93.40
47532;DHT22;33273;52.254;7.988;2022-11-21T14:26:02;2.20;93.60
47532;DHT22;33273;52.254;7.988;2022-11-21T14:28:31;2.30;94.10
47532;DHT22;33273;52.254;7.988;2022-11-21T14:30:59;2.20;93.90
47532;DHT22;33273;52.254;7.988;2022-11-21T14:33:36;2.30;94.10
47532;DHT22;33273;52.254;7.988;2022-11-21T14:36:28;2.20;94.40
47532;DHT22;33273;52.254;7.988;2022-11-21T14:39:05;2.20;94.80
47532;DHT22;33273;52.254;7.988;2022-11-21T14:41:33;2.20;95.10
47532;DHT22;33273;52.254;7.988;2022-11-21T14:44:02;2.30;95.20
47532;DHT22;33273;52.254;7.988;2022-11-21T14:46:34;2.30;95.40
47532;DHT22;33273;52.254;7.988;2022-11-21T14:54:27;2.30;95.80
47532;DHT22;33273;52.254;7.988;2022-11-21T14:56:57;2.40;96.20
47532;DHT22;33273;52.254;7.988;2022-11-21T14:59:38;2.40;95.90
47532;DHT22;33273;52.254;7.988;2022-11-21T15:02:20;2.50;96.10
47532;DHT22;33273;52.254;7.988;2022-11-21T15:04:48;2.50;96.10
47532;DHT22;33273;52.254;7.988;2022-11-21T15:07:22;2.50;96.00
47532;DHT22;33273;52.254;7.988;2022-11-21T15:09:50;2.50;95.90
47532;DHT22;33273;52.254;7.988;2022-11-21T15:18:02;2.50;96.20
47532;DHT22;33273;52.254;7.988;2022-11-21T15:20:31;2.60;96.40
47532;DHT22;33273;52.254;7.988;2022-11-21T15:22:59;2.60;96.70
47532;DHT22;33273;52.254;7.988;2022-11-21T15:25:30;2.60;97.20
47532;DHT22;33273;52.254;7.988;2022-11-21T15:30:32;2.60;98.10
47532;DHT22;33273;52.254;7.988;2022-11-21T15:35:42;2.60;98.80
47532;DHT22;33273;52.254;7.988;2022-11-21T15:38:39;2.50;98.90
47532;DHT22;33273;52.254;7.988;2022-11-21T15:43:49;2.50;99.20
47532;DHT22;33273;52.254;7.988;2022-11-21T15:48:44;2.50;99.30
47532;DHT22;33273;52.254;7.988;2022-11-21T15:51:11;2.50;99.30
47532;DHT22;33273;52.254;7.988;2022-11-21T15:53:37;2.50;99.30
47532;DHT22;33273;52.254;7.988;2022-11-21T15:56:04;2.50;99.60
47532;DHT22;33273;52.254;7.988;2022-11-21T15:58:31;2.50;99.90
47532;DHT22;33273;52.254;7.988;2022-11-21T16:00:57;2.50;99.90
47532;DHT22;33273;52.254;7.988;2022-11-21T16:03:24;2.50;99.90
47532;DHT22;33273;52.254;7.988;2022-11-21T16:05:50;2.40;99.90
47532;DHT22;33273;52.254;7.988;2022-11-21T16:08:16;2.50;99.90
47532;DHT22;33273;52.254;7.988;2022-11-21T16:10:43;2.40;99.90
47532;DHT22;33273;52.254;7.988;2022-11-21T16:13:10;2.50;99.90
47532;DHT22;33273;52.254;7.988;2022-11-21T16:15:36;2.40;99.50
47532;DHT22;33273;52.254;7.988;2022-11-21T16:18:02;2.40;99.50
47532;DHT22;33273;52.254;7.988;2022-11-21T16:20:28;2.40;99.90
47532;DHT22;33273;52.254;7.988;2022-11-21T16:22:54;2.40;99.90
47532;DHT22;33273;52.254;7.988;2022-11-21T16:25:20;2.40;99.70
47532;DHT22;33273;52.254;7.988;2022-11-21T16:27:46;2.40;99.70
47532;DHT22;33273;52.254;7.988;2022-11-21T16:30:13;2.30;99.90
47532;DHT22;33273;52.254;7.988;2022-11-21T16:32:39;2.30;99.90
47532;DHT22;33273;52.254;7.988;2022-11-21T16:35:05;2.30;99.90
47532;DHT22;33273;52.254;7.988;2022-11-21T16:37:33;2.30;99.90
47532;DHT22;33273;52.254;7.988;2022-11-21T16:39:58;2.30;99.90
47532;DHT22;33273;52.254;7.988;2022-11-21T16:42:25;2.20;99.90
47532;DHT22;33273;52.254;7.988;2022-11-21T16:44:51;2.20;99.90
47532;DHT22;33273;52.254;7.988;2022-11-21T16:47:17;2.10;99.90
47532;DHT22;33273;52.254;7.988;2022-11-21T16:49:45;2.00;99.90
47532;DHT22;33273;52.254;7.988;2022-11-21T16:52:12;2.00;99.90
47532;DHT22;33273;52.254;7.988;2022-11-21T16:54:38;1.90;99.90
47532;DHT22;33273;52.254;7.988;2022-11-21T16:57:05;1.90;99.90
47532;DHT22;33273;52.254;7.988;2022-11-21T16:59:31;1.80;99.90
47532;DHT22;33273;52.254;7.988;2022-11-21T17:01:57;1.80;99.90
47532;DHT22;33273;52.254;7.988;2022-11-21T17:04:24;1.70;99.90
47532;DHT22;33273;52.254;7.988;2022-11-21T17:06:50;1.70;99.90
47532;DHT22;33273;52.254;7.988;2022-11-21T17:09:17;1.60;99.90
47532;DHT22;33273;52.254;7.988;2022-11-21T17:11:44;1.50;99.90
47532;DHT22;33273;52.254;7.988;2022-11-21T17:14:11;1.50;99.90
47532;DHT22;33273;52.254;7.988;2022-11-21T17:16:37;1.50;99.90
47532;DHT22;33273;52.254;7.988;2022-11-21T17:19:05;1.50;99.90
47532;DHT22;33273;52.254;7.988;2022-11-21T17:21:32;1.40;99.90
47532;DHT22;33273;52.254;7.988;2022-11-21T17:23:59;1.40;99.90
47532;DHT22;33273;52.254;7.988;2022-11-21T17:26:26;1.40;99.90
47532;DHT22;33273;52.254;7.988;2022-11-21T17:28:54;1.30;99.90
47532;DHT22;33273;52.254;7.988;2022-11-21T17:31:21;1.30;99.90
47532;DHT22;33273;52.254;7.988;2022-11-21T17:33:48;1.20;99.90
47532;DHT22;33273;52.254;7.988;2022-11-21T17:36:21;1.20;99.90
47532;DHT22;33273;52.254;7.988;2022-11-21T17:38:47;1.20;99.90
47532;DHT22;33273;52.254;7.988;2022-11-21T17:41:15;1.10;99.90
47532;DHT22;33273;52.254;7.988;2022-11-21T17:43:42;1.10;99.90
47532;DHT22;33273;52.254;7.988;2022-11-21T17:46:14;1.10;99.90
47532;DHT22;33273;52.254;7.988;2022-11-21T17:48:43;1.10;99.90
47532;DHT22;33273;52.254;7.988;2022-11-21T17:51:16;1.00;99.90
47532;DHT22;33273;52.254;7.988;2022-11-21T17:53:45;1.00;99.90
47532;DHT22;33273;52.254;7.988;2022-11-21T17:56:13;1.00;99.90
47532;DHT22;33273;52.254;7.988;2022-11-21T17:58:39;1.00;99.90
47532;DHT22;33273;52.254;7.988;2022-11-21T18:01:06;1.00;99.90
47532;DHT22;33273;52.254;7.988;2022-11-21T18:03:33;0.90;99.90
47532;DHT22;33273;52.254;7.988;2022-11-21T18:08:29;0.90;99.90